sensor_id;sensor_type;location;lat;lon;timestamp;temperature;humidity
41630;DHT22;27322;49.488;8.480;2023-10-19T00:01:22;12.90;99.90
41630;DHT22;27322;49.488;8.480;2023-10-19T00:03:52;12.90;99.90
41630;DHT22;27322;49.488;8.480;2023-10-19T00:06:21;12.90;99.90
41630;DHT22;27322;49.488;8.480;2023-10-19T00:08:48;12.80;99.90
41630;DHT22;27322;49.488;8.480;2023-10-19T00:11:16;12.80;99.90
41630;DHT22;27322;49.488;8.480;2023-10-19T00:13:49;12.90;99.90
41630;DHT22;27322;49.488;8.480;2023-10-19T00:16:20;12.90;99.90
41630;DHT22;27322;49.488;8.480;2023-10-19T00:18:51;12.90;99.90
41630;DHT22;27322;49.488;8.480;2023-10-19T00:21:18;12.90;99.90
41630;DHT22;27322;49.488;8.480;2023-10-19T00:23:51;12.90;99.90
41630;DHT22;27322;49.488;8.480;2023-10-19T00:26:17;12.90;99.90
41630;DHT22;27322;49.488;8.480;2023-10-19T00:28:45;12.80;99.90
41630;DHT22;27322;49.488;8.480;2023-10-19T00:31:14;12.80;99.90
41630;DHT22;27322;49.488;8.480;2023-10-19T00:33:40;12.80;99.90
41630;DHT22;27322;49.488;8.480;2023-10-19T00:36:09;12.80;99.90
41630;DHT22;27322;49.488;8.480;2023-10-19T00:38:39;12.90;99.90
41630;DHT22;27322;49.488;8.480;2023-10-19T00:41:07;12.80;99.90
41630;DHT22;27322;49.488;8.480;2023-10-19T00:43:37;12.90;99.90
41630;DHT22;27322;49.488;8.480;2023-10-19T00:46:12;12.90;99.90
41630;DHT22;27322;49.488;8.480;2023-10-19T00:48:57;12.90;99.90
41630;DHT22;27322;49.488;8.480;2023-10-19T00:51:27;12.90;99.90
41630;DHT22;27322;49.488;8.480;2023-10-19T00:53:57;12.80;99.90
41630;DHT22;27322;49.488;8.480;2023-10-19T00:56:24;12.90;99.90
41630;DHT22;27322;49.488;8.480;2023-10-19T00:58:57;12.90;99.90
41630;DHT22;27322;49.488;8.480;2023-10-19T01:01:38;12.90;99.90
41630;DHT22;27322;49.488;8.480;2023-10-19T01:04:12;12.90;99.90
41630;DHT22;27322;49.488;8.480;2023-10-19T01:06:46;12.80;99.90
41630;DHT22;27322;49.488;8.480;2023-10-19T01:09:27;12.90;99.90
41630;DHT22;27322;49.488;8.480;2023-10-19T01:11:53;12.90;99.90
41630;DHT22;27322;49.488;8.480;2023-10-19T01:14:22;12.80;99.90
41630;DHT22;27322;49.488;8.480;2023-10-19T01:16:53;12.80;99.90
41630;DHT22;27322;49.488;8.480;2023-10-19T01:19:23;12.80;99.90
41630;DHT22;27322;49.488;8.480;2023-10-19T01:21:49;12.80;99.90
41630;DHT22;27322;49.488;8.480;2023-10-19T01:24:21;12.80;99.90
41630;DHT22;27322;49.488;8.480;2023-10-19T01:27:06;12.80;99.90
41630;DHT22;27322;49.488;8.480;2023-10-19T01:29:35;12.80;99.90
41630;DHT22;27322;49.488;8.480;2023-10-19T01:32:03;12.80;99.90
41630;DHT22;27322;49.488;8.480;2023-10-19T01:34:32;12.80;99.90
41630;DHT22;27322;49.488;8.480;2023-10-19T01:37:02;12.80;99.90
41630;DHT22;27322;49.488;8.480;2023-10-19T01:39:32;12.80;99.90
41630;DHT22;27322;49.488;8.480;2023-10-19T01:41:58;12.90;99.90
41630;DHT22;27322;49.488;8.480;2023-10-19T01:44:24;12.90;99.90
41630;DHT22;27322;49.488;8.480;2023-10-19T01:46:50;12.90;99.90
41630;DHT22;27322;49.488;8.480;2023-10-19T01:49:16;12.90;99.90
41630;DHT22;27322;49.488;8.480;2023-10-19T01:51:55;12.90;99.90
41630;DHT22;27322;49.488;8.480;2023-10-19T01:54:22;12.90;99.90
41630;DHT22;27322;49.488;8.480;2023-10-19T01:56:54;12.90;99.90
41630;DHT22;27322;49.488;8.480;2023-10-19T01:59:25;12.90;99.90
41630;DHT22;27322;49.488;8.480;2023-10-19T02:01:53;12.90;99.90
41630;DHT22;27322;49.488;8.480;2023-10-19T02:04:20;12.90;99.90
41630;DHT22;27322;49.488;8.480;2023-10-19T02:06:47;12.90;99.90
41630;DHT22;27322;49.488;8.480;2023-10-19T02:09:14;13.00;99.90
41630;DHT22;27322;49.488;8.480;2023-10-19T02:11:48;12.90;99.90
41630;DHT22;27322;49.488;8.480;2023-10-19T02:14:17;12.90;99.90
41630;DHT22;27322;49.488;8.480;2023-10-19T02:16:46;12.90;99.90
41630;DHT22;27322;49.488;8.480;2023-10-19T02:19:13;12.90;99.90
41630;DHT22;27322;49.488;8.480;2023-10-19T02:21:39;12.90;99.90
41630;DHT22;27322;49.488;8.480;2023-10-19T02:24:09;12.80;99.90
41630;DHT22;27322;49.488;8.480;2023-10-19T02:26:37;12.90;99.90
41630;DHT22;27322;49.488;8.480;2023-10-19T02:29:04;12.90;99.90
41630;DHT22;27322;49.488;8.480;2023-10-19T02:31:36;12.80;99.90
41630;DHT22;27322;49.488;8.480;2023-10-19T02:34:09;12.90;99.90
41630;DHT22;27322;49.488;8.480;2023-10-19T02:36:36;12.90;99.90
41630;DHT22;27322;49.488;8.480;2023-10-19T02:39:10;12.90;99.90
41630;DHT22;27322;49.488;8.480;2023-10-19T02:41:40;12.90;99.90
41630;DHT22;27322;49.488;8.480;2023-10-19T02:44:15;12.90;99.90
41630;DHT22;27322;49.488;8.480;2023-10-19T02:46:50;12.90;99.90
41630;DHT22;27322;49.488;8.480;2023-10-19T02:49:18;12.90;99.90
41630;DHT22;27322;49.488;8.480;2023-10-19T02:51:46;12.90;99.90
41630;DHT22;27322;49.488;8.480;2023-10-19T02:54:21;12.90;99.90
41630;DHT22;27322;49.488;8.480;2023-10-19T02:56:55;12.90;99.90
41630;DHT22;27322;49.488;8.480;2023-10-19T02:59:23;12.90;99.90
41630;DHT22;27322;49.488;8.480;2023-10-19T03:01:50;12.90;99.90
41630;DHT22;27322;49.488;8.480;2023-10-19T03:04:17;12.90;99.90
41630;DHT22;27322;49.488;8.480;2023-10-19T03:06:43;12.90;99.90
41630;DHT22;27322;49.488;8.480;2023-10-19T03:09:09;13.00;99.90
41630;DHT22;27322;49.488;8.480;2023-10-19T03:11:48;13.00;99.90
41630;DHT22;27322;49.488;8.480;2023-10-19T03:14:18;12.90;99.90
41630;DHT22;27322;49.488;8.480;2023-10-19T03:16:44;13.00;99.90
41630;DHT22;27322;49.488;8.480;2023-10-19T03:19:11;13.00;99.90
41630;DHT22;27322;49.488;8.480;2023-10-19T03:21:38;13.00;99.90
41630;DHT22;27322;49.488;8.480;2023-10-19T03:24:11;13.00;99.90
41630;DHT22;27322;49.488;8.480;2023-10-19T03:27:00;13.00;99.90
41630;DHT22;27322;49.488;8.480;2023-10-19T03:29:25;13.00;99.90
41630;DHT22;27322;49.488;8.480;2023-10-19T03:31:58;13.00;99.90
41630;DHT22;27322;49.488;8.480;2023-10-19T03:34:27;13.00;99.90
41630;DHT22;27322;49.488;8.480;2023-10-19T03:36:52;13.00;99.90
41630;DHT22;27322;49.488;8.480;2023-10-19T03:39:18;13.00;99.90
41630;DHT22;27322;49.488;8.480;2023-10-19T03:41:44;13.00;99.90
41630;DHT22;27322;49.488;8.480;2023-10-19T03:44:10;13.00;99.90
41630;DHT22;27322;49.488;8.480;2023-10-19T03:47:02;13.00;99.90
41630;DHT22;27322;49.488;8.480;2023-10-19T03:49:30;13.00;99.90
41630;DHT22;27322;49.488;8.480;2023-10-19T03:52:01;13.00;99.90
41630;DHT22;27322;49.488;8.480;2023-10-19T03:54:36;13.00;99.90
41630;DHT22;27322;49.488;8.480;2023-10-19T03:57:13;13.00;99.90
41630;DHT22;27322;49.488;8.480;2023-10-19T03:59:46;13.00;99.90
41630;DHT22;27322;49.488;8.480;2023-10-19T04:02:15;13.00;99.90
41630;DHT22;27322;49.488;8.480;2023-10-19T04:04:46;13.00;99.90
41630;DHT22;27322;49.488;8.480;2023-10-19T04:07:14;13.00;99.90
41630;DHT22;27322;49.488;8.480;2023-10-19T04:09:52;13.00;99.90
41630;DHT22;27322;49.488;8.480;2023-10-19T04:12:40;13.00;99.90
41630;DHT22;27322;49.488;8.480;2023-10-19T04:15:09;13.10;99.90
41630;DHT22;27322;49.488;8.480;2023-10-19T04:17:41;13.10;99.90
41630;DHT22;27322;49.488;8.480;2023-10-19T04:20:14;13.10;99.90
41630;DHT22;27322;49.488;8.480;2023-10-19T04:22:46;13.10;99.90
41630;DHT22;27322;49.488;8.480;2023-10-19T04:25:12;13.10;99.90
41630;DHT22;27322;49.488;8.480;2023-10-19T04:27:39;13.10;99.90
41630;DHT22;27322;49.488;8.480;2023-10-19T04:30:10;13.10;99.90
41630;DHT22;27322;49.488;8.480;2023-10-19T04:32:50;13.10;99.90
41630;DHT22;27322;49.488;8.480;2023-10-19T04:35:16;13.10;99.90
41630;DHT22;27322;49.488;8.480;2023-10-19T04:37:49;13.10;99.90
41630;DHT22;27322;49.488;8.480;2023-10-19T04:40:16;13.10;99.90
41630;DHT22;27322;49.488;8.480;2023-10-19T04:42:41;13.10;99.90
41630;DHT22;27322;49.488;8.480;2023-10-19T04:45:07;13.10;99.90
41630;DHT22;27322;49.488;8.480;2023-10-19T04:47:33;13.10;99.90
41630;DHT22;27322;49.488;8.480;2023-10-19T04:50:03;13.20;99.90
41630;DHT22;27322;49.488;8.480;2023-10-19T04:52:29;13.20;99.90
41630;DHT22;27322;49.488;8.480;2023-10-19T04:54:55;13.20;99.90
41630;DHT22;27322;49.488;8.480;2023-10-19T04:57:20;13.20;99.90
41630;DHT22;27322;49.488;8.480;2023-10-19T04:59:47;13.20;99.90
41630;DHT22;27322;49.488;8.480;2023-10-19T05:02:12;13.20;99.90
41630;DHT22;27322;49.488;8.480;2023-10-19T05:04:38;13.20;99.90
41630;DHT22;27322;49.488;8.480;2023-10-19T05:07:05;13.20;99.90
41630;DHT22;27322;49.488;8.480;2023-10-19T05:09:32;13.20;99.90
41630;DHT22;27322;49.488;8.480;2023-10-19T05:11:58;13.10;99.90
41630;DHT22;27322;49.488;8.480;2023-10-19T05:14:23;13.10;99.90
41630;DHT22;27322;49.488;8.480;2023-10-19T05:16:49;13.10;99.90
41630;DHT22;27322;49.488;8.480;2023-10-19T05:19:15;13.20;99.90
41630;DHT22;27322;49.488;8.480;2023-10-19T05:21:41;13.10;99.90
41630;DHT22;27322;49.488;8.480;2023-10-19T05:24:07;13.10;99.90
41630;DHT22;27322;49.488;8.480;2023-10-19T05:26:36;13.10;99.90
41630;DHT22;27322;49.488;8.480;2023-10-19T05:29:01;13.10;99.90
41630;DHT22;27322;49.488;8.480;2023-10-19T05:31:27;13.10;99.90
41630;DHT22;27322;49.488;8.480;2023-10-19T05:33:53;13.10;99.90
41630;DHT22;27322;49.488;8.480;2023-10-19T05:36:19;13.10;99.90
41630;DHT22;27322;49.488;8.480;2023-10-19T05:38:45;13.10;99.90
41630;DHT22;27322;49.488;8.480;2023-10-19T05:41:10;13.10;99.90
41630;DHT22;27322;49.488;8.480;2023-10-19T05:43:37;13.10;99.90
41630;DHT22;27322;49.488;8.480;2023-10-19T05:46:03;13.10;99.90
41630;DHT22;27322;49.488;8.480;2023-10-19T05:48:28;13.10;99.90
41630;DHT22;27322;49.488;8.480;2023-10-19T05:50:54;13.10;99.90
41630;DHT22;27322;49.488;8.480;2023-10-19T05:53:20;13.00;99.90
41630;DHT22;27322;49.488;8.480;2023-10-19T05:55:50;13.00;99.90
41630;DHT22;27322;49.488;8.480;2023-10-19T05:58:16;13.00;99.90
41630;DHT22;27322;49.488;8.480;2023-10-19T06:00:42;13.10;99.90
41630;DHT22;27322;49.488;8.480;2023-10-19T06:03:08;13.10;99.90
41630;DHT22;27322;49.488;8.480;2023-10-19T06:05:35;13.00;99.90
41630;DHT22;27322;49.488;8.480;2023-10-19T06:08:00;13.00;99.90
41630;DHT22;27322;49.488;8.480;2023-10-19T06:10:27;13.00;99.90
41630;DHT22;27322;49.488;8.480;2023-10-19T06:12:53;13.00;99.90
41630;DHT22;27322;49.488;8.480;2023-10-19T06:15:21;13.00;99.90
41630;DHT22;27322;49.488;8.480;2023-10-19T06:17:47;13.00;99.90
41630;DHT22;27322;49.488;8.480;2023-10-19T06:20:14;13.00;99.90
41630;DHT22;27322;49.488;8.480;2023-10-19T06:22:51;13.00;99.90
41630;DHT22;27322;49.488;8.480;2023-10-19T06:25:21;13.00;99.90
41630;DHT22;27322;49.488;8.480;2023-10-19T06:27:48;13.00;99.90
41630;DHT22;27322;49.488;8.480;2023-10-19T06:30:14;13.00;99.90
41630;DHT22;27322;49.488;8.480;2023-10-19T06:32:45;13.00;99.90
41630;DHT22;27322;49.488;8.480;2023-10-19T06:35:11;13.10;99.90
41630;DHT22;27322;49.488;8.480;2023-10-19T06:37:37;13.00;99.90
41630;DHT22;27322;49.488;8.480;2023-10-19T06:40:02;13.10;99.90
41630;DHT22;27322;49.488;8.480;2023-10-19T06:42:28;13.10;99.90
41630;DHT22;27322;49.488;8.480;2023-10-19T06:44:54;13.10;99.90
41630;DHT22;27322;49.488;8.480;2023-10-19T06:47:22;13.10;99.90
41630;DHT22;27322;49.488;8.480;2023-10-19T06:49:48;13.10;99.90
41630;DHT22;27322;49.488;8.480;2023-10-19T06:52:14;13.20;99.90
41630;DHT22;27322;49.488;8.480;2023-10-19T06:54:41;13.10;99.90
41630;DHT22;27322;49.488;8.480;2023-10-19T06:57:07;13.20;99.90
41630;DHT22;27322;49.488;8.480;2023-10-19T06:59:35;13.20;99.90
41630;DHT22;27322;49.488;8.480;2023-10-19T07:02:02;13.20;99.90
41630;DHT22;27322;49.488;8.480;2023-10-19T07:04:28;13.30;99.90
41630;DHT22;27322;49.488;8.480;2023-10-19T07:06:55;13.30;99.90
41630;DHT22;27322;49.488;8.480;2023-10-19T07:09:20;13.30;99.90
41630;DHT22;27322;49.488;8.480;2023-10-19T07:11:46;13.30;99.90
41630;DHT22;27322;49.488;8.480;2023-10-19T07:14:13;13.40;99.90
41630;DHT22;27322;49.488;8.480;2023-10-19T07:16:40;13.40;99.90
41630;DHT22;27322;49.488;8.480;2023-10-19T07:19:06;13.40;99.90
41630;DHT22;27322;49.488;8.480;2023-10-19T07:21:31;13.40;99.90
41630;DHT22;27322;49.488;8.480;2023-10-19T07:24:01;13.50;99.90
41630;DHT22;27322;49.488;8.480;2023-10-19T07:26:31;13.50;99.90
41630;DHT22;27322;49.488;8.480;2023-10-19T07:28:59;13.50;99.90
41630;DHT22;27322;49.488;8.480;2023-10-19T07:31:25;13.50;99.90
41630;DHT22;27322;49.488;8.480;2023-10-19T07:33:53;13.50;99.90
41630;DHT22;27322;49.488;8.480;2023-10-19T07:36:22;13.60;99.90
41630;DHT22;27322;49.488;8.480;2023-10-19T07:38:50;13.60;99.90
41630;DHT22;27322;49.488;8.480;2023-10-19T07:41:17;13.60;99.90
41630;DHT22;27322;49.488;8.480;2023-10-19T07:43:43;13.60;99.90
41630;DHT22;27322;49.488;8.480;2023-10-19T07:46:12;13.60;99.90
41630;DHT22;27322;49.488;8.480;2023-10-19T07:48:38;13.60;99.90
41630;DHT22;27322;49.488;8.480;2023-10-19T07:51:04;13.60;99.90
41630;DHT22;27322;49.488;8.480;2023-10-19T07:53:29;13.70;99.90
41630;DHT22;27322;49.488;8.480;2023-10-19T07:55:55;13.70;99.90
41630;DHT22;27322;49.488;8.480;2023-10-19T07:58:22;13.70;99.90
41630;DHT22;27322;49.488;8.480;2023-10-19T08:00:49;13.70;99.90
41630;DHT22;27322;49.488;8.480;2023-10-19T08:03:15;13.80;99.90
41630;DHT22;27322;49.488;8.480;2023-10-19T08:05:41;13.80;99.90
41630;DHT22;27322;49.488;8.480;2023-10-19T08:08:08;13.80;99.90
41630;DHT22;27322;49.488;8.480;2023-10-19T08:10:34;13.80;99.90
41630;DHT22;27322;49.488;8.480;2023-10-19T08:13:00;13.80;99.90
41630;DHT22;27322;49.488;8.480;2023-10-19T08:15:27;13.80;99.90
41630;DHT22;27322;49.488;8.480;2023-10-19T08:17:54;13.90;99.90
41630;DHT22;27322;49.488;8.480;2023-10-19T08:20:20;13.90;99.90
41630;DHT22;27322;49.488;8.480;2023-10-19T08:22:52;13.90;99.90
41630;DHT22;27322;49.488;8.480;2023-10-19T08:25:18;13.90;99.90
41630;DHT22;27322;49.488;8.480;2023-10-19T08:27:44;14.00;99.90
41630;DHT22;27322;49.488;8.480;2023-10-19T08:30:14;14.00;99.90
41630;DHT22;27322;49.488;8.480;2023-10-19T08:32:40;14.10;99.90
41630;DHT22;27322;49.488;8.480;2023-10-19T08:35:07;14.20;99.90
41630;DHT22;27322;49.488;8.480;2023-10-19T08:37:33;14.20;99.90
41630;DHT22;27322;49.488;8.480;2023-10-19T08:40:00;14.20;99.90
41630;DHT22;27322;49.488;8.480;2023-10-19T08:42:25;14.30;99.90
41630;DHT22;27322;49.488;8.480;2023-10-19T08:44:51;14.30;99.90
41630;DHT22;27322;49.488;8.480;2023-10-19T08:47:17;14.30;99.90
41630;DHT22;27322;49.488;8.480;2023-10-19T08:49:43;14.40;99.90
41630;DHT22;27322;49.488;8.480;2023-10-19T08:52:08;14.40;99.90
41630;DHT22;27322;49.488;8.480;2023-10-19T08:54:34;14.40;99.90
41630;DHT22;27322;49.488;8.480;2023-10-19T08:57:00;14.50;99.90
41630;DHT22;27322;49.488;8.480;2023-10-19T08:59:26;14.50;99.90
41630;DHT22;27322;49.488;8.480;2023-10-19T09:02:02;14.50;99.90
41630;DHT22;27322;49.488;8.480;2023-10-19T09:04:29;14.50;99.90
41630;DHT22;27322;49.488;8.480;2023-10-19T09:06:55;14.60;99.90
41630;DHT22;27322;49.488;8.480;2023-10-19T09:09:20;14.60;99.90
41630;DHT22;27322;49.488;8.480;2023-10-19T09:11:47;14.60;99.90
41630;DHT22;27322;49.488;8.480;2023-10-19T09:14:14;14.60;99.90
41630;DHT22;27322;49.488;8.480;2023-10-19T09:16:55;14.70;99.90
41630;DHT22;27322;49.488;8.480;2023-10-19T09:19:35;14.70;99.90
41630;DHT22;27322;49.488;8.480;2023-10-19T09:22:02;14.70;99.90
41630;DHT22;27322;49.488;8.480;2023-10-19T09:24:34;14.70;99.90
41630;DHT22;27322;49.488;8.480;2023-10-19T09:26:59;14.80;99.90
41630;DHT22;27322;49.488;8.480;2023-10-19T09:29:25;14.80;99.90
41630;DHT22;27322;49.488;8.480;2023-10-19T09:31:51;14.80;99.90
41630;DHT22;27322;49.488;8.480;2023-10-19T09:34:20;14.90;99.90
41630;DHT22;27322;49.488;8.480;2023-10-19T09:36:47;14.90;99.90
41630;DHT22;27322;49.488;8.480;2023-10-19T09:39:13;15.00;99.90
41630;DHT22;27322;49.488;8.480;2023-10-19T09:41:39;15.00;99.90
41630;DHT22;27322;49.488;8.480;2023-10-19T09:44:07;15.10;99.90
41630;DHT22;27322;49.488;8.480;2023-10-19T09:46:37;15.10;99.90
41630;DHT22;27322;49.488;8.480;2023-10-19T09:49:05;15.10;99.90
41630;DHT22;27322;49.488;8.480;2023-10-19T09:51:32;15.20;99.90
41630;DHT22;27322;49.488;8.480;2023-10-19T09:54:07;15.30;99.90
41630;DHT22;27322;49.488;8.480;2023-10-19T09:56:41;15.30;99.90
41630;DHT22;27322;49.488;8.480;2023-10-19T09:59:26;15.30;99.90
41630;DHT22;27322;49.488;8.480;2023-10-19T10:02:07;15.40;99.90
41630;DHT22;27322;49.488;8.480;2023-10-19T10:04:34;15.40;99.90
41630;DHT22;27322;49.488;8.480;2023-10-19T10:07:05;15.40;99.90
41630;DHT22;27322;49.488;8.480;2023-10-19T10:09:36;15.40;99.90
41630;DHT22;27322;49.488;8.480;2023-10-19T10:12:21;15.50;99.90
41630;DHT22;27322;49.488;8.480;2023-10-19T10:17:24;15.60;99.90
41630;DHT22;27322;49.488;8.480;2023-10-19T10:19:54;15.60;99.90
41630;DHT22;27322;49.488;8.480;2023-10-19T10:22:21;15.60;99.90
41630;DHT22;27322;49.488;8.480;2023-10-19T10:24:54;15.60;99.90
41630;DHT22;27322;49.488;8.480;2023-10-19T10:27:22;15.60;99.90
41630;DHT22;27322;49.488;8.480;2023-10-19T10:29:59;15.70;99.90
41630;DHT22;27322;49.488;8.480;2023-10-19T10:38:09;15.70;99.90
41630;DHT22;27322;49.488;8.480;2023-10-19T10:40:44;15.60;99.90
41630;DHT22;27322;49.488;8.480;2023-10-19T10:43:11;15.70;99.90
41630;DHT22;27322;49.488;8.480;2023-10-19T10:45:37;15.60;99.90
41630;DHT22;27322;49.488;8.480;2023-10-19T10:48:03;15.60;99.90
41630;DHT22;27322;49.488;8.480;2023-10-19T10:50:29;15.60;99.90
41630;DHT22;27322;49.488;8.480;2023-10-19T10:52:55;15.60;99.90
41630;DHT22;27322;49.488;8.480;2023-10-19T10:55:23;15.60;99.90
41630;DHT22;27322;49.488;8.480;2023-10-19T10:57:51;15.60;99.90
41630;DHT22;27322;49.488;8.480;2023-10-19T11:00:17;15.60;99.90
41630;DHT22;27322;49.488;8.480;2023-10-19T11:02:45;15.60;99.90
41630;DHT22;27322;49.488;8.480;2023-10-19T11:05:13;15.60;99.90
41630;DHT22;27322;49.488;8.480;2023-10-19T11:10:30;15.60;99.90
41630;DHT22;27322;49.488;8.480;2023-10-19T11:13:07;15.60;99.90
41630;DHT22;27322;49.488;8.480;2023-10-19T11:15:33;15.60;99.90
41630;DHT22;27322;49.488;8.480;2023-10-19T11:17:59;15.60;99.90
41630;DHT22;27322;49.488;8.480;2023-10-19T11:20:26;15.60;99.90
41630;DHT22;27322;49.488;8.480;2023-10-19T11:22:56;15.60;99.90
41630;DHT22;27322;49.488;8.480;2023-10-19T11:27:48;15.60;99.90
41630;DHT22;27322;49.488;8.480;2023-10-19T11:30:25;15.60;99.90
41630;DHT22;27322;49.488;8.480;2023-10-19T11:32:52;15.50;99.90
41630;DHT22;27322;49.488;8.480;2023-10-19T11:35:29;15.60;99.90
41630;DHT22;27322;49.488;8.480;2023-10-19T11:37:57;15.50;99.90
41630;DHT22;27322;49.488;8.480;2023-10-19T11:40:24;15.50;99.90
41630;DHT22;27322;49.488;8.480;2023-10-19T11:42:51;15.60;99.90
41630;DHT22;27322;49.488;8.480;2023-10-19T11:45:18;15.50;99.90
41630;DHT22;27322;49.488;8.480;2023-10-19T11:47:44;15.50;99.90
41630;DHT22;27322;49.488;8.480;2023-10-19T11:50:11;15.60;99.90
41630;DHT22;27322;49.488;8.480;2023-10-19T11:52:44;15.60;99.90
41630;DHT22;27322;49.488;8.480;2023-10-19T11:55:13;15.60;99.90
41630;DHT22;27322;49.488;8.480;2023-10-19T11:57:40;15.60;99.90
41630;DHT22;27322;49.488;8.480;2023-10-19T12:00:06;15.50;99.90
41630;DHT22;27322;49.488;8.480;2023-10-19T12:02:39;15.50;99.90
41630;DHT22;27322;49.488;8.480;2023-10-19T12:05:09;15.50;99.90
41630;DHT22;27322;49.488;8.480;2023-10-19T12:07:37;15.50;99.90
41630;DHT22;27322;49.488;8.480;2023-10-19T12:10:06;15.50;99.90
41630;DHT22;27322;49.488;8.480;2023-10-19T12:12:33;15.60;99.90
41630;DHT22;27322;49.488;8.480;2023-10-19T12:14:59;15.60;99.90
41630;DHT22;27322;49.488;8.480;2023-10-19T12:17:24;15.50;99.90
41630;DHT22;27322;49.488;8.480;2023-10-19T12:19:53;15.60;99.90
41630;DHT22;27322;49.488;8.480;2023-10-19T12:22:19;15.50;99.90
41630;DHT22;27322;49.488;8.480;2023-10-19T12:24:46;15.60;99.90
41630;DHT22;27322;49.488;8.480;2023-10-19T12:27:12;15.60;99.90
41630;DHT22;27322;49.488;8.480;2023-10-19T12:29:39;15.50;99.90
41630;DHT22;27322;49.488;8.480;2023-10-19T12:32:05;15.60;99.90
41630;DHT22;27322;49.488;8.480;2023-10-19T12:34:31;15.60;99.90
41630;DHT22;27322;49.488;8.480;2023-10-19T12:36:57;15.60;99.90
41630;DHT22;27322;49.488;8.480;2023-10-19T12:39:27;15.50;99.90
41630;DHT22;27322;49.488;8.480;2023-10-19T12:42:08;15.60;99.90
41630;DHT22;27322;49.488;8.480;2023-10-19T12:44:34;15.60;99.90
41630;DHT22;27322;49.488;8.480;2023-10-19T12:47:10;15.60;99.90
41630;DHT22;27322;49.488;8.480;2023-10-19T12:49:42;15.60;99.90
41630;DHT22;27322;49.488;8.480;2023-10-19T12:52:10;15.60;99.90
41630;DHT22;27322;49.488;8.480;2023-10-19T12:54:37;15.50;99.90
41630;DHT22;27322;49.488;8.480;2023-10-19T12:57:04;15.50;99.90
41630;DHT22;27322;49.488;8.480;2023-10-19T12:59:34;15.50;99.90
41630;DHT22;27322;49.488;8.480;2023-10-19T13:01:59;15.50;99.90
41630;DHT22;27322;49.488;8.480;2023-10-19T13:04:28;15.60;99.90
41630;DHT22;27322;49.488;8.480;2023-10-19T13:06:56;15.60;99.90
41630;DHT22;27322;49.488;8.480;2023-10-19T13:09:24;15.50;99.90
41630;DHT22;27322;49.488;8.480;2023-10-19T13:11:57;15.50;99.90
41630;DHT22;27322;49.488;8.480;2023-10-19T13:14:22;15.50;99.90
41630;DHT22;27322;49.488;8.480;2023-10-19T13:16:48;15.50;99.90
41630;DHT22;27322;49.488;8.480;2023-10-19T13:19:16;15.50;99.90
41630;DHT22;27322;49.488;8.480;2023-10-19T13:21:47;15.50;99.90
41630;DHT22;27322;49.488;8.480;2023-10-19T13:24:12;15.50;99.90
41630;DHT22;27322;49.488;8.480;2023-10-19T13:26:39;15.50;99.90
41630;DHT22;27322;49.488;8.480;2023-10-19T13:29:07;15.50;99.90
41630;DHT22;27322;49.488;8.480;2023-10-19T13:31:33;15.50;99.90
41630;DHT22;27322;49.488;8.480;2023-10-19T13:34:00;15.50;99.90
41630;DHT22;27322;49.488;8.480;2023-10-19T13:36:28;15.60;99.90
41630;DHT22;27322;49.488;8.480;2023-10-19T13:38:54;15.60;99.90
41630;DHT22;27322;49.488;8.480;2023-10-19T13:41:20;15.60;99.90
41630;DHT22;27322;49.488;8.480;2023-10-19T13:43:45;15.60;99.90
41630;DHT22;27322;49.488;8.480;2023-10-19T13:46:12;15.50;99.90
41630;DHT22;27322;49.488;8.480;2023-10-19T13:48:38;15.60;99.90
41630;DHT22;27322;49.488;8.480;2023-10-19T13:51:05;15.60;99.90
41630;DHT22;27322;49.488;8.480;2023-10-19T13:53:41;15.50;99.90
41630;DHT22;27322;49.488;8.480;2023-10-19T13:56:10;15.60;99.90
41630;DHT22;27322;49.488;8.480;2023-10-19T13:58:36;15.60;99.90
41630;DHT22;27322;49.488;8.480;2023-10-19T14:01:02;15.50;99.90
41630;DHT22;27322;49.488;8.480;2023-10-19T14:03:29;15.60;99.90
41630;DHT22;27322;49.488;8.480;2023-10-19T14:05:56;15.60;99.90
41630;DHT22;27322;49.488;8.480;2023-10-19T14:08:21;15.60;99.90
41630;DHT22;27322;49.488;8.480;2023-10-19T14:10:47;15.60;99.90
41630;DHT22;27322;49.488;8.480;2023-10-19T14:13:13;15.60;99.90
41630;DHT22;27322;49.488;8.480;2023-10-19T14:15:40;15.60;99.90
41630;DHT22;27322;49.488;8.480;2023-10-19T14:18:06;15.60;99.90
41630;DHT22;27322;49.488;8.480;2023-10-19T14:20:32;15.60;99.90
41630;DHT22;27322;49.488;8.480;2023-10-19T14:23:00;15.60;99.90
41630;DHT22;27322;49.488;8.480;2023-10-19T14:25:26;15.60;99.90
41630;DHT22;27322;49.488;8.480;2023-10-19T14:27:53;15.60;99.90
41630;DHT22;27322;49.488;8.480;2023-10-19T14:30:23;15.60;99.90
41630;DHT22;27322;49.488;8.480;2023-10-19T14:32:49;15.60;99.90
41630;DHT22;27322;49.488;8.480;2023-10-19T14:35:17;15.60;99.90
41630;DHT22;27322;49.488;8.480;2023-10-19T14:37:45;15.60;99.90
41630;DHT22;27322;49.488;8.480;2023-10-19T14:40:14;15.60;99.90
41630;DHT22;27322;49.488;8.480;2023-10-19T14:42:41;15.60;99.90
41630;DHT22;27322;49.488;8.480;2023-10-19T14:45:12;15.60;99.90
41630;DHT22;27322;49.488;8.480;2023-10-19T14:47:40;15.60;99.90
41630;DHT22;27322;49.488;8.480;2023-10-19T14:50:16;15.60;99.90
41630;DHT22;27322;49.488;8.480;2023-10-19T14:52:46;15.60;99.90
41630;DHT22;27322;49.488;8.480;2023-10-19T14:55:12;15.70;99.90
41630;DHT22;27322;49.488;8.480;2023-10-19T14:57:44;15.60;99.90
41630;DHT22;27322;49.488;8.480;2023-10-19T15:00:18;15.60;99.90
41630;DHT22;27322;49.488;8.480;2023-10-19T15:02:49;15.70;99.90
41630;DHT22;27322;49.488;8.480;2023-10-19T15:05:15;15.60;99.90
41630;DHT22;27322;49.488;8.480;2023-10-19T15:07:46;15.70;99.90
41630;DHT22;27322;49.488;8.480;2023-10-19T15:10:17;15.70;99.90
41630;DHT22;27322;49.488;8.480;2023-10-19T15:12:42;15.60;99.90
41630;DHT22;27322;49.488;8.480;2023-10-19T15:15:09;15.70;99.90
41630;DHT22;27322;49.488;8.480;2023-10-19T15:17:39;15.70;99.90
41630;DHT22;27322;49.488;8.480;2023-10-19T15:20:06;15.70;99.90
41630;DHT22;27322;49.488;8.480;2023-10-19T15:22:32;15.70;99.90
41630;DHT22;27322;49.488;8.480;2023-10-19T15:24:59;15.70;99.90
41630;DHT22;27322;49.488;8.480;2023-10-19T15:27:24;15.70;99.90
41630;DHT22;27322;49.488;8.480;2023-10-19T15:29:50;15.80;99.90
41630;DHT22;27322;49.488;8.480;2023-10-19T15:32:16;15.80;99.90
41630;DHT22;27322;49.488;8.480;2023-10-19T15:34:42;15.80;99.90
41630;DHT22;27322;49.488;8.480;2023-10-19T15:37:08;15.80;99.90
41630;DHT22;27322;49.488;8.480;2023-10-19T15:39:34;15.80;99.90
41630;DHT22;27322;49.488;8.480;2023-10-19T15:42:00;15.80;99.90
41630;DHT22;27322;49.488;8.480;2023-10-19T15:44:26;15.80;99.90
41630;DHT22;27322;49.488;8.480;2023-10-19T15:46:51;15.80;99.90
41630;DHT22;27322;49.488;8.480;2023-10-19T15:49:18;15.80;99.90
41630;DHT22;27322;49.488;8.480;2023-10-19T15:51:45;15.80;99.90